Main page
METAR-TAF:

METAR-TAF

Airports :

Rochelle Municipal Airport (Koritz Field)

Rochelle, Illinois, United States

latitude: 41-53-35N, longitude: 089-04-42W, elevation: 781 ft

Current weather observation

The report was made 17 minutes ago, at 03:15 UTC
Wind 16 mph from the North/Northeast with gusts up to 22 mph
Temperature 27°F
Humidity 80%
Pressure 29.90 in. Hg
Visibility: 7 miles
Scattered clouds at a height of 1200 ft
Scattered clouds at a height of 1700 ft
Overcast at a height of 3600 ft
light snow

METAR: KRPJ 240315Z AUTO 02014G19KT 7SM -SN SCT012 SCT017 OVC036 M03/M06 A2990 RMK AO2 T10341059 TSNO

Time: 21:32 (03:32 UTC)


TAF: missing

Weather observations and forecasts of more than 4000 airports (METAR and TAF reports).

The available stations are represented by yellow and red dots on the map.

Hover mouse over dot to see the name of the station.

Then click to see weather observations and forecasts.

To change the map : click on the green buttons with a black cross to zoom in, on the green button with a dash to zoom out, or on the green arrows for adjacent maps.


METAR-TAF: